KIND

Indianapolis International Airport

Indianapolis, Indiana, USA
KIND 212320Z 2200/2306 11009KT P6SM BKN230 FM220300 11008KT P6SM SCT180 FM221100 14010KT P6SM SCT240 WS020/17035KT FM221600 15012KT P6SM BKN230 WS020/19045KT FM230000 17014KT 6SM -RA OVC040 WS020/19055KT FM230200 17016KT 6SM -RA OVC027 WS020/19055KT FM230400 18016KT 5SM -RA OVC015 WS020/19055KT
Issued Valid From Valid To
Jan-21 @ 23:20 UTC
(an hour ago)
Jan-22 @ 00:00 UTC
(23 minutes ago)
Jan-23 @ 06:00 UTC
(-1 days ago)
Jan-22 @ 00:00 to Jan-22 @ 03:00
KIND 212320Z 2200/2306 11009KT P6SM BKN230
Wind Visibility Clouds
110° at 9 knots Greater than 6 miles
  • Broken at 23,000' AGL
From Jan-22 @ 03:00 to Jan-22 @ 11:00
FM220300 11008KT P6SM SCT180
Wind Visibility Clouds
110° at 8 knots Greater than 6 miles
  • Scattered at 18,000' AGL
From Jan-22 @ 11:00 to Jan-22 @ 16:00
FM221100 14010KT P6SM SCT240 WS020/17035KT
Wind Visibility Clouds
140° at 10 knots
 Wind shear 2,000' AGL from 170° at 35 knots
Greater than 6 miles
  • Scattered at 24,000' AGL
From Jan-22 @ 16:00 to Jan-23 @ 00:00
FM221600 15012KT P6SM BKN230 WS020/19045KT
Wind Visibility Clouds
150° at 12 knots
 Wind shear 2,000' AGL from 190° at 45 knots
Greater than 6 miles
  • Broken at 23,000' AGL
From Jan-23 @ 00:00 to Jan-23 @ 02:00
FM230000 17014KT 6SM -RA OVC040 WS020/19055KT
Wind Visibility Clouds Conditions
170° at 14 knots
 Wind shear 2,000' AGL from 190° at 55 knots
6 miles
  • Overcast at 4,000' AGL
  • Light Rain
From Jan-23 @ 02:00 to Jan-23 @ 04:00
FM230200 17016KT 6SM -RA OVC027 WS020/19055KT
Wind Visibility Clouds Conditions
170° at 16 knots
 Wind shear 2,000' AGL from 190° at 55 knots
6 miles
  • Overcast at 2,700' AGL
  • Light Rain
From Jan-23 @ 04:00 to Jan-23 @ 06:00
FM230400 18016KT 5SM -RA OVC015 WS020/19055KT
Wind Visibility Clouds Conditions
180° at 16 knots
 Wind shear 2,000' AGL from 190° at 55 knots
5 miles
  • Overcast at 1,500' AGL
  • Light Rain
KIND 212320Z 2200/2306 11009KT P6SM BKN230 FM220300 11008KT P6SM SCT180 FM221100 14010KT P6SM SCT240 WS020/17035KT FM221600 15012KT P6SM BKN230 WS020/19045KT FM230000 17014KT 6SM -RA OVC040 WS020/19055KT FM230200 17016KT 6SM -RA OVC027 WS020/19055KT FM230400 18016KT 5SM -RA OVC015 WS020/19055KT
Issued Jan-21 @ 23:20 UTC
(an hour ago)
Valid From Jan-22 @ 00:00 UTC
(23 minutes ago)
Valid To Jan-23 @ 06:00 UTC
(-1 days ago)
Jan-22 @ 00:00 - Jan-22 @ 03:00
Wind Visibility
110° at 9 knots Greater than 6 miles
Clouds
  • Broken at 23,000' AGL
From Jan-22 @ 03:00 - Jan-22 @ 11:00
Wind Visibility
110° at 8 knots Greater than 6 miles
Clouds
  • Scattered at 18,000' AGL
From Jan-22 @ 11:00 - Jan-22 @ 16:00
Wind Visibility
140° at 10 knots Greater than 6 miles
Clouds
  • Scattered at 24,000' AGL
From Jan-22 @ 16:00 - Jan-23 @ 00:00
Wind Visibility
150° at 12 knots Greater than 6 miles
Clouds
  • Broken at 23,000' AGL
From Jan-23 @ 00:00 - Jan-23 @ 02:00
Wind Visibility
170° at 14 knots 6 miles
Clouds
  • Overcast at 4,000' AGL
Conditions
  • Light Rain
From Jan-23 @ 02:00 - Jan-23 @ 04:00
Wind Visibility
170° at 16 knots 6 miles
Clouds
  • Overcast at 2,700' AGL
Conditions
  • Light Rain
From Jan-23 @ 04:00 - Jan-23 @ 06:00
Wind Visibility
180° at 16 knots 5 miles
Clouds
  • Overcast at 1,500' AGL
Conditions
  • Light Rain